sensor_id;sensor_type;location;lat;lon;timestamp;P1;durP1;ratioP1;P2;durP2;ratioP2
18520;SDS011;9390;51.244;6.982;2022-12-13T00:01:52;52.00;;;20.90;;
18520;SDS011;9390;51.244;6.982;2022-12-13T00:04:24;52.40;;;21.67;;
18520;SDS011;9390;51.244;6.982;2022-12-13T00:06:55;47.85;;;20.42;;
18520;SDS011;9390;51.244;6.982;2022-12-13T00:09:26;49.47;;;21.17;;
18520;SDS011;9390;51.244;6.982;2022-12-13T00:11:58;54.08;;;21.23;;
18520;SDS011;9390;51.244;6.982;2022-12-13T00:14:30;56.22;;;22.00;;
18520;SDS011;9390;51.244;6.982;2022-12-13T00:17:02;66.88;;;22.77;;
18520;SDS011;9390;51.244;6.982;2022-12-13T00:19:33;53.88;;;19.75;;
18520;SDS011;9390;51.244;6.982;2022-12-13T00:22:05;49.97;;;21.63;;
18520;SDS011;9390;51.244;6.982;2022-12-13T00:24:36;55.10;;;20.33;;
18520;SDS011;9390;51.244;6.982;2022-12-13T00:27:08;49.22;;;21.70;;
18520;SDS011;9390;51.244;6.982;2022-12-13T00:29:40;49.40;;;21.20;;
18520;SDS011;9390;51.244;6.982;2022-12-13T00:32:12;55.92;;;22.45;;
18520;SDS011;9390;51.244;6.982;2022-12-13T00:34:43;62.05;;;20.73;;
18520;SDS011;9390;51.244;6.982;2022-12-13T00:37:15;50.57;;;21.33;;
18520;SDS011;9390;51.244;6.982;2022-12-13T00:39:46;50.40;;;20.60;;
18520;SDS011;9390;51.244;6.982;2022-12-13T00:42:17;51.45;;;21.38;;
18520;SDS011;9390;51.244;6.982;2022-12-13T00:44:50;44.60;;;20.70;;
18520;SDS011;9390;51.244;6.982;2022-12-13T00:47:21;52.75;;;21.27;;
18520;SDS011;9390;51.244;6.982;2022-12-13T00:49:53;48.30;;;20.70;;
18520;SDS011;9390;51.244;6.982;2022-12-13T00:52:24;52.50;;;21.27;;
18520;SDS011;9390;51.244;6.982;2022-12-13T00:54:56;49.00;;;20.08;;
18520;SDS011;9390;51.244;6.982;2022-12-13T00:57:27;61.77;;;21.87;;
18520;SDS011;9390;51.244;6.982;2022-12-13T01:00:00;65.73;;;21.57;;
18520;SDS011;9390;51.244;6.982;2022-12-13T01:02:31;52.58;;;21.33;;
18520;SDS011;9390;51.244;6.982;2022-12-13T01:05:03;60.37;;;20.57;;
18520;SDS011;9390;51.244;6.982;2022-12-13T01:07:35;48.67;;;19.33;;
18520;SDS011;9390;51.244;6.982;2022-12-13T01:10:07;49.13;;;20.40;;
18520;SDS011;9390;51.244;6.982;2022-12-13T01:12:38;52.05;;;20.40;;
18520;SDS011;9390;51.244;6.982;2022-12-13T01:15:11;49.72;;;21.65;;
18520;SDS011;9390;51.244;6.982;2022-12-13T01:17:43;60.88;;;22.80;;
18520;SDS011;9390;51.244;6.982;2022-12-13T01:20:15;50.55;;;21.88;;
18520;SDS011;9390;51.244;6.982;2022-12-13T01:22:47;52.67;;;21.17;;
18520;SDS011;9390;51.244;6.982;2022-12-13T01:25:18;50.72;;;19.88;;
18520;SDS011;9390;51.244;6.982;2022-12-13T01:27:49;50.73;;;20.43;;
18520;SDS011;9390;51.244;6.982;2022-12-13T01:30:22;54.20;;;19.30;;
18520;SDS011;9390;51.244;6.982;2022-12-13T01:32:53;54.95;;;21.65;;
18520;SDS011;9390;51.244;6.982;2022-12-13T01:35:25;50.13;;;20.30;;
18520;SDS011;9390;51.244;6.982;2022-12-13T01:37:56;51.67;;;20.40;;
18520;SDS011;9390;51.244;6.982;2022-12-13T01:40:28;54.90;;;22.02;;
18520;SDS011;9390;51.244;6.982;2022-12-13T01:42:59;51.90;;;21.30;;
18520;SDS011;9390;51.244;6.982;2022-12-13T01:45:32;54.38;;;20.42;;
18520;SDS011;9390;51.244;6.982;2022-12-13T01:48:04;52.88;;;21.17;;
18520;SDS011;9390;51.244;6.982;2022-12-13T01:50:38;53.00;;;20.67;;
18520;SDS011;9390;51.244;6.982;2022-12-13T01:53:12;51.42;;;21.48;;
18520;SDS011;9390;51.244;6.982;2022-12-13T01:55:45;60.53;;;22.13;;
18520;SDS011;9390;51.244;6.982;2022-12-13T01:58:19;56.43;;;22.27;;
18520;SDS011;9390;51.244;6.982;2022-12-13T02:00:52;53.10;;;22.10;;
18520;SDS011;9390;51.244;6.982;2022-12-13T02:05:57;48.70;;;19.90;;
18520;SDS011;9390;51.244;6.982;2022-12-13T02:08:29;50.50;;;20.20;;
18520;SDS011;9390;51.244;6.982;2022-12-13T02:11:02;49.13;;;20.13;;
18520;SDS011;9390;51.244;6.982;2022-12-13T02:13:33;54.90;;;21.47;;
18520;SDS011;9390;51.244;6.982;2022-12-13T02:16:07;50.67;;;20.10;;
18520;SDS011;9390;51.244;6.982;2022-12-13T02:18:51;46.80;;;19.63;;
18520;SDS011;9390;51.244;6.982;2022-12-13T02:21:32;48.57;;;20.03;;
18520;SDS011;9390;51.244;6.982;2022-12-13T02:27:06;50.00;;;19.70;;
18520;SDS011;9390;51.244;6.982;2022-12-13T02:29:57;54.57;;;21.27;;
18520;SDS011;9390;51.244;6.982;2022-12-13T02:35:43;43.37;;;18.80;;
18520;SDS011;9390;51.244;6.982;2022-12-13T02:38:23;43.60;;;19.90;;
18520;SDS011;9390;51.244;6.982;2022-12-13T02:40:59;49.67;;;19.20;;
18520;SDS011;9390;51.244;6.982;2022-12-13T02:43:37;49.90;;;20.20;;
18520;SDS011;9390;51.244;6.982;2022-12-13T02:46:11;54.97;;;18.87;;
18520;SDS011;9390;51.244;6.982;2022-12-13T02:48:44;52.27;;;20.03;;
18520;SDS011;9390;51.244;6.982;2022-12-13T02:51:16;44.92;;;20.75;;
18520;SDS011;9390;51.244;6.982;2022-12-13T02:53:48;50.53;;;19.83;;
18520;SDS011;9390;51.244;6.982;2022-12-13T02:56:20;47.77;;;19.57;;
18520;SDS011;9390;51.244;6.982;2022-12-13T02:58:52;49.07;;;19.87;;
18520;SDS011;9390;51.244;6.982;2022-12-13T03:01:33;50.15;;;18.92;;
18520;SDS011;9390;51.244;6.982;2022-12-13T03:04:19;44.93;;;18.87;;
18520;SDS011;9390;51.244;6.982;2022-12-13T03:06:59;49.50;;;18.87;;
18520;SDS011;9390;51.244;6.982;2022-12-13T03:09:39;53.03;;;20.58;;
18520;SDS011;9390;51.244;6.982;2022-12-13T03:12:19;47.70;;;19.20;;
18520;SDS011;9390;51.244;6.982;2022-12-13T03:15:13;45.57;;;17.40;;
18520;SDS011;9390;51.244;6.982;2022-12-13T03:17:49;46.13;;;19.37;;
18520;SDS011;9390;51.244;6.982;2022-12-13T03:20:24;43.37;;;19.03;;
18520;SDS011;9390;51.244;6.982;2022-12-13T03:22:57;50.80;;;19.50;;
18520;SDS011;9390;51.244;6.982;2022-12-13T03:25:29;45.85;;;18.73;;
18520;SDS011;9390;51.244;6.982;2022-12-13T03:28:01;50.17;;;19.53;;
18520;SDS011;9390;51.244;6.982;2022-12-13T03:30:33;47.83;;;19.23;;
18520;SDS011;9390;51.244;6.982;2022-12-13T03:33:06;42.53;;;17.50;;
18520;SDS011;9390;51.244;6.982;2022-12-13T03:35:37;44.40;;;18.17;;
18520;SDS011;9390;51.244;6.982;2022-12-13T03:38:09;38.87;;;18.23;;
18520;SDS011;9390;51.244;6.982;2022-12-13T03:40:41;50.33;;;18.40;;
18520;SDS011;9390;51.244;6.982;2022-12-13T03:43:12;52.23;;;20.53;;
18520;SDS011;9390;51.244;6.982;2022-12-13T03:45:44;41.73;;;17.07;;
18520;SDS011;9390;51.244;6.982;2022-12-13T03:48:17;50.70;;;19.50;;
18520;SDS011;9390;51.244;6.982;2022-12-13T03:50:48;43.03;;;18.30;;
18520;SDS011;9390;51.244;6.982;2022-12-13T03:53:20;49.67;;;19.00;;
18520;SDS011;9390;51.244;6.982;2022-12-13T03:55:53;56.70;;;18.63;;
18520;SDS011;9390;51.244;6.982;2022-12-13T03:58:24;47.60;;;18.67;;
18520;SDS011;9390;51.244;6.982;2022-12-13T04:00:55;49.83;;;18.57;;
18520;SDS011;9390;51.244;6.982;2022-12-13T04:03:28;51.97;;;19.40;;
18520;SDS011;9390;51.244;6.982;2022-12-13T04:06:00;43.33;;;18.95;;
18520;SDS011;9390;51.244;6.982;2022-12-13T04:08:31;45.37;;;18.27;;
18520;SDS011;9390;51.244;6.982;2022-12-13T04:11:03;47.97;;;19.50;;
18520;SDS011;9390;51.244;6.982;2022-12-13T04:13:55;41.93;;;18.07;;
18520;SDS011;9390;51.244;6.982;2022-12-13T04:16:25;48.43;;;20.47;;
18520;SDS011;9390;51.244;6.982;2022-12-13T04:18:58;49.13;;;17.87;;
18520;SDS011;9390;51.244;6.982;2022-12-13T04:21:29;52.92;;;20.13;;
18520;SDS011;9390;51.244;6.982;2022-12-13T04:24:01;55.03;;;20.47;;
18520;SDS011;9390;51.244;6.982;2022-12-13T04:26:32;51.33;;;19.27;;
18520;SDS011;9390;51.244;6.982;2022-12-13T04:29:03;49.80;;;19.07;;
18520;SDS011;9390;51.244;6.982;2022-12-13T04:31:35;47.03;;;20.20;;
18520;SDS011;9390;51.244;6.982;2022-12-13T04:34:08;45.33;;;18.00;;
18520;SDS011;9390;51.244;6.982;2022-12-13T04:36:39;49.60;;;18.63;;
18520;SDS011;9390;51.244;6.982;2022-12-13T04:39:11;47.97;;;18.77;;
18520;SDS011;9390;51.244;6.982;2022-12-13T04:41:42;46.97;;;17.73;;
18520;SDS011;9390;51.244;6.982;2022-12-13T04:44:13;44.97;;;17.67;;
18520;SDS011;9390;51.244;6.982;2022-12-13T04:46:45;43.80;;;17.70;;
18520;SDS011;9390;51.244;6.982;2022-12-13T04:49:18;49.63;;;17.80;;
18520;SDS011;9390;51.244;6.982;2022-12-13T04:51:49;48.42;;;18.50;;
18520;SDS011;9390;51.244;6.982;2022-12-13T04:54:21;47.93;;;18.33;;
18520;SDS011;9390;51.244;6.982;2022-12-13T04:56:52;40.20;;;17.40;;
18520;SDS011;9390;51.244;6.982;2022-12-13T04:59:24;54.70;;;18.07;;
18520;SDS011;9390;51.244;6.982;2022-12-13T05:01:55;39.67;;;18.20;;
18520;SDS011;9390;51.244;6.982;2022-12-13T05:04:28;46.13;;;18.03;;
18520;SDS011;9390;51.244;6.982;2022-12-13T05:09:31;46.50;;;18.93;;
18520;SDS011;9390;51.244;6.982;2022-12-13T05:12:03;48.80;;;18.30;;
18520;SDS011;9390;51.244;6.982;2022-12-13T05:14:35;45.92;;;17.17;;
18520;SDS011;9390;51.244;6.982;2022-12-13T05:17:06;43.43;;;16.97;;
18520;SDS011;9390;51.244;6.982;2022-12-13T05:19:39;44.67;;;18.13;;
18520;SDS011;9390;51.244;6.982;2022-12-13T05:22:11;42.58;;;17.00;;
18520;SDS011;9390;51.244;6.982;2022-12-13T05:24:46;47.87;;;18.53;;
18520;SDS011;9390;51.244;6.982;2022-12-13T05:27:17;45.27;;;18.23;;
18520;SDS011;9390;51.244;6.982;2022-12-13T05:29:49;46.03;;;19.53;;
18520;SDS011;9390;51.244;6.982;2022-12-13T05:32:20;46.27;;;19.63;;
18520;SDS011;9390;51.244;6.982;2022-12-13T05:34:53;44.73;;;18.10;;
18520;SDS011;9390;51.244;6.982;2022-12-13T05:37:24;46.70;;;18.83;;
18520;SDS011;9390;51.244;6.982;2022-12-13T05:39:56;48.43;;;20.00;;
18520;SDS011;9390;51.244;6.982;2022-12-13T05:42:27;46.00;;;17.67;;
18520;SDS011;9390;51.244;6.982;2022-12-13T05:44:59;52.67;;;19.67;;
18520;SDS011;9390;51.244;6.982;2022-12-13T05:47:30;43.70;;;18.50;;
18520;SDS011;9390;51.244;6.982;2022-12-13T05:50:03;48.07;;;19.27;;
18520;SDS011;9390;51.244;6.982;2022-12-13T05:52:35;49.30;;;19.37;;
18520;SDS011;9390;51.244;6.982;2022-12-13T05:55:07;46.33;;;17.30;;
18520;SDS011;9390;51.244;6.982;2022-12-13T05:57:39;44.70;;;19.00;;
18520;SDS011;9390;51.244;6.982;2022-12-13T06:00:10;40.57;;;17.27;;
18520;SDS011;9390;51.244;6.982;2022-12-13T06:02:42;44.88;;;18.92;;
18520;SDS011;9390;51.244;6.982;2022-12-13T06:05:15;43.03;;;17.47;;
18520;SDS011;9390;51.244;6.982;2022-12-13T06:07:47;43.42;;;17.20;;
18520;SDS011;9390;51.244;6.982;2022-12-13T06:10:18;47.33;;;18.17;;
18520;SDS011;9390;51.244;6.982;2022-12-13T06:12:50;46.07;;;19.57;;
18520;SDS011;9390;51.244;6.982;2022-12-13T06:15:21;49.73;;;19.37;;
18520;SDS011;9390;51.244;6.982;2022-12-13T06:17:52;42.80;;;16.90;;
18520;SDS011;9390;51.244;6.982;2022-12-13T06:20:25;47.87;;;17.80;;
18520;SDS011;9390;51.244;6.982;2022-12-13T06:22:57;43.35;;;18.17;;
18520;SDS011;9390;51.244;6.982;2022-12-13T06:25:29;42.53;;;18.23;;
18520;SDS011;9390;51.244;6.982;2022-12-13T06:28:00;48.20;;;18.07;;
18520;SDS011;9390;51.244;6.982;2022-12-13T06:30:32;50.17;;;18.80;;
18520;SDS011;9390;51.244;6.982;2022-12-13T06:33:03;47.17;;;18.33;;
18520;SDS011;9390;51.244;6.982;2022-12-13T06:35:36;45.53;;;19.20;;
18520;SDS011;9390;51.244;6.982;2022-12-13T06:38:15;49.87;;;19.00;;
18520;SDS011;9390;51.244;6.982;2022-12-13T06:40:46;47.70;;;18.37;;
18520;SDS011;9390;51.244;6.982;2022-12-13T06:43:18;48.87;;;18.07;;
18520;SDS011;9390;51.244;6.982;2022-12-13T06:45:49;48.07;;;19.20;;
18520;SDS011;9390;51.244;6.982;2022-12-13T06:48:21;47.37;;;19.43;;
18520;SDS011;9390;51.244;6.982;2022-12-13T06:50:53;49.03;;;18.67;;
18520;SDS011;9390;51.244;6.982;2022-12-13T06:56:01;45.67;;;18.70;;
18520;SDS011;9390;51.244;6.982;2022-12-13T06:58:33;55.03;;;19.57;;
18520;SDS011;9390;51.244;6.982;2022-12-13T07:01:05;51.37;;;19.90;;
18520;SDS011;9390;51.244;6.982;2022-12-13T07:03:38;52.40;;;20.37;;
18520;SDS011;9390;51.244;6.982;2022-12-13T07:06:12;56.17;;;20.00;;
18520;SDS011;9390;51.244;6.982;2022-12-13T07:08:46;54.10;;;22.10;;
18520;SDS011;9390;51.244;6.982;2022-12-13T07:11:19;58.13;;;21.43;;
18520;SDS011;9390;51.244;6.982;2022-12-13T07:13:52;53.80;;;21.50;;
18520;SDS011;9390;51.244;6.982;2022-12-13T07:16:24;54.15;;;20.92;;
18520;SDS011;9390;51.244;6.982;2022-12-13T07:18:57;61.63;;;23.63;;
18520;SDS011;9390;51.244;6.982;2022-12-13T07:24:01;53.57;;;21.17;;
18520;SDS011;9390;51.244;6.982;2022-12-13T07:26:33;62.13;;;25.53;;
18520;SDS011;9390;51.244;6.982;2022-12-13T07:29:04;56.53;;;23.57;;
18520;SDS011;9390;51.244;6.982;2022-12-13T07:31:36;76.83;;;26.93;;
18520;SDS011;9390;51.244;6.982;2022-12-13T07:34:07;61.90;;;24.37;;
18520;SDS011;9390;51.244;6.982;2022-12-13T07:36:40;63.70;;;22.70;;
18520;SDS011;9390;51.244;6.982;2022-12-13T07:39:11;60.17;;;22.55;;
18520;SDS011;9390;51.244;6.982;2022-12-13T07:41:43;57.30;;;22.13;;
18520;SDS011;9390;51.244;6.982;2022-12-13T07:44:14;60.63;;;23.10;;
18520;SDS011;9390;51.244;6.982;2022-12-13T07:46:45;55.57;;;21.87;;
18520;SDS011;9390;51.244;6.982;2022-12-13T07:49:17;59.10;;;21.43;;
18520;SDS011;9390;51.244;6.982;2022-12-13T07:51:50;61.93;;;22.63;;
18520;SDS011;9390;51.244;6.982;2022-12-13T07:54:21;53.92;;;21.15;;
18520;SDS011;9390;51.244;6.982;2022-12-13T07:56:52;57.53;;;23.03;;
18520;SDS011;9390;51.244;6.982;2022-12-13T07:59:24;58.33;;;22.37;;
18520;SDS011;9390;51.244;6.982;2022-12-13T08:01:55;56.47;;;21.53;;
18520;SDS011;9390;51.244;6.982;2022-12-13T08:04:26;56.77;;;21.67;;
18520;SDS011;9390;51.244;6.982;2022-12-13T08:06:59;59.40;;;22.27;;
18520;SDS011;9390;51.244;6.982;2022-12-13T08:09:31;61.72;;;22.05;;
18520;SDS011;9390;51.244;6.982;2022-12-13T08:12:02;59.70;;;22.13;;
18520;SDS011;9390;51.244;6.982;2022-12-13T08:14:34;55.57;;;22.23;;
18520;SDS011;9390;51.244;6.982;2022-12-13T08:17:05;58.70;;;22.93;;
18520;SDS011;9390;51.244;6.982;2022-12-13T08:19:37;52.70;;;21.57;;
18520;SDS011;9390;51.244;6.982;2022-12-13T08:22:12;71.90;;;30.20;;
18520;SDS011;9390;51.244;6.982;2022-12-13T08:24:43;55.67;;;22.83;;
18520;SDS011;9390;51.244;6.982;2022-12-13T08:27:15;49.97;;;21.33;;
18520;SDS011;9390;51.244;6.982;2022-12-13T08:29:46;54.20;;;20.67;;
18520;SDS011;9390;51.244;6.982;2022-12-13T08:32:18;50.33;;;22.47;;
18520;SDS011;9390;51.244;6.982;2022-12-13T08:34:49;48.60;;;20.27;;
18520;SDS011;9390;51.244;6.982;2022-12-13T08:37:22;56.00;;;20.40;;
18520;SDS011;9390;51.244;6.982;2022-12-13T08:39:53;48.88;;;21.17;;
18520;SDS011;9390;51.244;6.982;2022-12-13T08:42:25;49.40;;;20.20;;
18520;SDS011;9390;51.244;6.982;2022-12-13T08:44:56;51.13;;;20.30;;
18520;SDS011;9390;51.244;6.982;2022-12-13T08:47:28;50.97;;;20.60;;
18520;SDS011;9390;51.244;6.982;2022-12-13T08:50:00;50.53;;;20.27;;
18520;SDS011;9390;51.244;6.982;2022-12-13T08:52:33;54.30;;;20.40;;
18520;SDS011;9390;51.244;6.982;2022-12-13T08:55:06;55.33;;;20.40;;
18520;SDS011;9390;51.244;6.982;2022-12-13T08:57:38;48.28;;;21.38;;
18520;SDS011;9390;51.244;6.982;2022-12-13T09:00:11;47.00;;;20.98;;
18520;SDS011;9390;51.244;6.982;2022-12-13T09:02:44;49.27;;;20.93;;
18520;SDS011;9390;51.244;6.982;2022-12-13T09:05:15;44.67;;;20.43;;
18520;SDS011;9390;51.244;6.982;2022-12-13T09:07:48;49.60;;;19.33;;
18520;SDS011;9390;51.244;6.982;2022-12-13T09:10:19;55.58;;;21.90;;
18520;SDS011;9390;51.244;6.982;2022-12-13T09:12:52;43.78;;;20.35;;
18520;SDS011;9390;51.244;6.982;2022-12-13T09:15:24;43.05;;;18.67;;
18520;SDS011;9390;51.244;6.982;2022-12-13T09:17:55;42.90;;;18.67;;
18520;SDS011;9390;51.244;6.982;2022-12-13T09:20:27;42.40;;;16.38;;
18520;SDS011;9390;51.244;6.982;2022-12-13T09:23:01;41.40;;;17.83;;
18520;SDS011;9390;51.244;6.982;2022-12-13T09:25:33;45.08;;;17.02;;
18520;SDS011;9390;51.244;6.982;2022-12-13T09:28:05;41.17;;;17.20;;
18520;SDS011;9390;51.244;6.982;2022-12-13T09:30:37;44.22;;;16.10;;
18520;SDS011;9390;51.244;6.982;2022-12-13T09:33:09;36.03;;;16.73;;
18520;SDS011;9390;51.244;6.982;2022-12-13T09:35:40;44.97;;;17.88;;
18520;SDS011;9390;51.244;6.982;2022-12-13T09:38:13;40.47;;;16.80;;
18520;SDS011;9390;51.244;6.982;2022-12-13T09:40:46;38.78;;;15.75;;
18520;SDS011;9390;51.244;6.982;2022-12-13T09:43:20;36.88;;;15.27;;
18520;SDS011;9390;51.244;6.982;2022-12-13T09:45:53;40.95;;;16.77;;
18520;SDS011;9390;51.244;6.982;2022-12-13T09:48:25;35.72;;;15.57;;
18520;SDS011;9390;51.244;6.982;2022-12-13T09:50:57;35.28;;;14.57;;
18520;SDS011;9390;51.244;6.982;2022-12-13T09:53:31;35.17;;;14.88;;
18520;SDS011;9390;51.244;6.982;2022-12-13T09:56:02;37.35;;;15.88;;
18520;SDS011;9390;51.244;6.982;2022-12-13T09:58:34;34.00;;;14.85;;
18520;SDS011;9390;51.244;6.982;2022-12-13T10:01:06;39.03;;;14.75;;
18520;SDS011;9390;51.244;6.982;2022-12-13T10:03:38;37.95;;;15.00;;
18520;SDS011;9390;51.244;6.982;2022-12-13T10:06:12;31.52;;;14.27;;
18520;SDS011;9390;51.244;6.982;2022-12-13T10:08:47;34.65;;;14.25;;
18520;SDS011;9390;51.244;6.982;2022-12-13T10:11:20;33.03;;;13.90;;
18520;SDS011;9390;51.244;6.982;2022-12-13T10:13:53;31.87;;;13.93;;
18520;SDS011;9390;51.244;6.982;2022-12-13T10:16:27;31.70;;;14.55;;
18520;SDS011;9390;51.244;6.982;2022-12-13T10:19:01;36.80;;;13.55;;
18520;SDS011;9390;51.244;6.982;2022-12-13T10:21:38;31.88;;;13.98;;
18520;SDS011;9390;51.244;6.982;2022-12-13T10:24:14;31.73;;;13.35;;
18520;SDS011;9390;51.244;6.982;2022-12-13T10:26:48;28.35;;;13.40;;
18520;SDS011;9390;51.244;6.982;2022-12-13T10:29:19;31.90;;;13.05;;
18520;SDS011;9390;51.244;6.982;2022-12-13T10:31:51;31.05;;;13.27;;
18520;SDS011;9390;51.244;6.982;2022-12-13T10:34:23;30.75;;;12.70;;
18520;SDS011;9390;51.244;6.982;2022-12-13T10:36:55;34.33;;;12.15;;
18520;SDS011;9390;51.244;6.982;2022-12-13T10:39:38;27.05;;;10.95;;
18520;SDS011;9390;51.244;6.982;2022-12-13T10:42:11;26.17;;;12.07;;
18520;SDS011;9390;51.244;6.982;2022-12-13T10:44:43;25.35;;;10.70;;
18520;SDS011;9390;51.244;6.982;2022-12-13T10:47:15;25.42;;;11.93;;
18520;SDS011;9390;51.244;6.982;2022-12-13T10:49:50;33.30;;;13.00;;
18520;SDS011;9390;51.244;6.982;2022-12-13T10:52:24;26.90;;;11.43;;
18520;SDS011;9390;51.244;6.982;2022-12-13T10:54:59;29.17;;;11.98;;
18520;SDS011;9390;51.244;6.982;2022-12-13T10:57:33;31.38;;;12.00;;
18520;SDS011;9390;51.244;6.982;2022-12-13T11:00:11;28.50;;;11.90;;
18520;SDS011;9390;51.244;6.982;2022-12-13T11:03:01;25.42;;;10.50;;
18520;SDS011;9390;51.244;6.982;2022-12-13T11:05:33;26.27;;;10.38;;
18520;SDS011;9390;51.244;6.982;2022-12-13T11:08:11;28.33;;;11.40;;
18520;SDS011;9390;51.244;6.982;2022-12-13T11:10:45;27.75;;;11.15;;
18520;SDS011;9390;51.244;6.982;2022-12-13T11:13:30;27.80;;;12.18;;
18520;SDS011;9390;51.244;6.982;2022-12-13T11:16:04;22.00;;;10.45;;
18520;SDS011;9390;51.244;6.982;2022-12-13T11:18:49;26.17;;;11.38;;
18520;SDS011;9390;51.244;6.982;2022-12-13T11:21:22;30.75;;;11.95;;
18520;SDS011;9390;51.244;6.982;2022-12-13T11:23:55;26.88;;;11.05;;
18520;SDS011;9390;51.244;6.982;2022-12-13T11:26:31;23.10;;;10.02;;
18520;SDS011;9390;51.244;6.982;2022-12-13T11:29:20;26.73;;;10.75;;
18520;SDS011;9390;51.244;6.982;2022-12-13T11:32:01;23.35;;;9.48;;
18520;SDS011;9390;51.244;6.982;2022-12-13T11:34:39;23.65;;;9.55;;
18520;SDS011;9390;51.244;6.982;2022-12-13T11:37:16;26.08;;;10.02;;
18520;SDS011;9390;51.244;6.982;2022-12-13T11:39:55;24.08;;;10.45;;
18520;SDS011;9390;51.244;6.982;2022-12-13T11:42:31;25.40;;;10.95;;
18520;SDS011;9390;51.244;6.982;2022-12-13T11:45:06;23.38;;;10.13;;
18520;SDS011;9390;51.244;6.982;2022-12-13T11:47:43;23.42;;;11.05;;
18520;SDS011;9390;51.244;6.982;2022-12-13T11:50:17;24.38;;;10.98;;
18520;SDS011;9390;51.244;6.982;2022-12-13T11:52:51;26.50;;;11.20;;
18520;SDS011;9390;51.244;6.982;2022-12-13T11:55:25;28.30;;;10.48;;
18520;SDS011;9390;51.244;6.982;2022-12-13T11:58:00;21.05;;;8.95;;
18520;SDS011;9390;51.244;6.982;2022-12-13T12:00:35;23.55;;;10.40;;
18520;SDS011;9390;51.244;6.982;2022-12-13T12:03:13;21.00;;;9.85;;
18520;SDS011;9390;51.244;6.982;2022-12-13T12:05:47;22.15;;;9.45;;
18520;SDS011;9390;51.244;6.982;2022-12-13T12:08:21;21.92;;;9.77;;
18520;SDS011;9390;51.244;6.982;2022-12-13T12:11:00;28.50;;;10.52;;
18520;SDS011;9390;51.244;6.982;2022-12-13T12:13:37;26.17;;;10.60;;
18520;SDS011;9390;51.244;6.982;2022-12-13T12:16:12;22.55;;;9.43;;
18520;SDS011;9390;51.244;6.982;2022-12-13T12:18:49;24.20;;;10.32;;
18520;SDS011;9390;51.244;6.982;2022-12-13T12:21:23;25.77;;;10.90;;
18520;SDS011;9390;51.244;6.982;2022-12-13T12:24:03;25.92;;;10.23;;
18520;SDS011;9390;51.244;6.982;2022-12-13T12:26:41;28.75;;;10.25;;
18520;SDS011;9390;51.244;6.982;2022-12-13T12:29:33;26.30;;;9.75;;
18520;SDS011;9390;51.244;6.982;2022-12-13T12:32:16;22.67;;;9.63;;
18520;SDS011;9390;51.244;6.982;2022-12-13T12:34:55;24.40;;;10.25;;
18520;SDS011;9390;51.244;6.982;2022-12-13T12:37:33;29.08;;;11.35;;
18520;SDS011;9390;51.244;6.982;2022-12-13T12:40:20;23.58;;;10.43;;
18520;SDS011;9390;51.244;6.982;2022-12-13T12:43:03;25.10;;;10.50;;
18520;SDS011;9390;51.244;6.982;2022-12-13T12:45:44;22.48;;;9.57;;
18520;SDS011;9390;51.244;6.982;2022-12-13T12:48:25;20.47;;;9.80;;
18520;SDS011;9390;51.244;6.982;2022-12-13T12:51:06;20.98;;;9.52;;
18520;SDS011;9390;51.244;6.982;2022-12-13T12:53:41;20.77;;;9.50;;
18520;SDS011;9390;51.244;6.982;2022-12-13T12:56:27;24.45;;;9.98;;
18520;SDS011;9390;51.244;6.982;2022-12-13T12:59:06;21.95;;;9.27;;
18520;SDS011;9390;51.244;6.982;2022-12-13T13:01:50;25.02;;;9.38;;
18520;SDS011;9390;51.244;6.982;2022-12-13T13:04:25;22.17;;;9.52;;
18520;SDS011;9390;51.244;6.982;2022-12-13T13:07:03;27.30;;;10.20;;
18520;SDS011;9390;51.244;6.982;2022-12-13T13:09:36;27.83;;;10.85;;
18520;SDS011;9390;51.244;6.982;2022-12-13T13:12:07;20.00;;;8.98;;
18520;SDS011;9390;51.244;6.982;2022-12-13T13:14:39;20.08;;;8.82;;
18520;SDS011;9390;51.244;6.982;2022-12-13T13:22:52;16.27;;;7.68;;
18520;SDS011;9390;51.244;6.982;2022-12-13T13:25:27;19.45;;;8.00;;
18520;SDS011;9390;51.244;6.982;2022-12-13T13:28:01;23.23;;;9.32;;
18520;SDS011;9390;51.244;6.982;2022-12-13T13:30:34;18.63;;;7.70;;
18520;SDS011;9390;51.244;6.982;2022-12-13T13:33:07;18.48;;;7.95;;
18520;SDS011;9390;51.244;6.982;2022-12-13T13:39:16;20.63;;;8.77;;
18520;SDS011;9390;51.244;6.982;2022-12-13T13:41:52;20.38;;;8.73;;
18520;SDS011;9390;51.244;6.982;2022-12-13T13:44:31;20.85;;;8.73;;
18520;SDS011;9390;51.244;6.982;2022-12-13T13:47:10;23.25;;;8.98;;
18520;SDS011;9390;51.244;6.982;2022-12-13T13:49:48;17.65;;;8.20;;
18520;SDS011;9390;51.244;6.982;2022-12-13T13:52:25;21.47;;;8.63;;
18520;SDS011;9390;51.244;6.982;2022-12-13T13:58:00;17.10;;;8.10;;
18520;SDS011;9390;51.244;6.982;2022-12-13T14:01:05;17.38;;;8.02;;
18520;SDS011;9390;51.244;6.982;2022-12-13T14:06:44;20.90;;;7.80;;
18520;SDS011;9390;51.244;6.982;2022-12-13T14:12:31;19.05;;;7.68;;
18520;SDS011;9390;51.244;6.982;2022-12-13T14:21:24;25.98;;;9.50;;
18520;SDS011;9390;51.244;6.982;2022-12-13T14:24:02;23.55;;;10.27;;
18520;SDS011;9390;51.244;6.982;2022-12-13T14:26:42;25.58;;;9.27;;
18520;SDS011;9390;51.244;6.982;2022-12-13T14:29:21;24.63;;;9.07;;
18520;SDS011;9390;51.244;6.982;2022-12-13T14:31:55;19.67;;;8.98;;
18520;SDS011;9390;51.244;6.982;2022-12-13T14:34:27;23.63;;;9.27;;
18520;SDS011;9390;51.244;6.982;2022-12-13T14:37:01;20.38;;;8.38;;
18520;SDS011;9390;51.244;6.982;2022-12-13T14:39:35;21.63;;;8.73;;
18520;SDS011;9390;51.244;6.982;2022-12-13T14:42:17;19.27;;;9.05;;
18520;SDS011;9390;51.244;6.982;2022-12-13T14:44:52;28.13;;;9.77;;
18520;SDS011;9390;51.244;6.982;2022-12-13T14:47:23;25.65;;;9.88;;
18520;SDS011;9390;51.244;6.982;2022-12-13T14:49:55;26.58;;;9.07;;
18520;SDS011;9390;51.244;6.982;2022-12-13T14:52:27;26.23;;;9.30;;
18520;SDS011;9390;51.244;6.982;2022-12-13T14:55:04;19.92;;;8.77;;
18520;SDS011;9390;51.244;6.982;2022-12-13T14:57:38;24.00;;;9.45;;
18520;SDS011;9390;51.244;6.982;2022-12-13T15:00:19;22.98;;;9.05;;
18520;SDS011;9390;51.244;6.982;2022-12-13T15:02:54;22.17;;;8.50;;
18520;SDS011;9390;51.244;6.982;2022-12-13T15:05:27;20.73;;;8.98;;
18520;SDS011;9390;51.244;6.982;2022-12-13T15:08:00;21.33;;;9.73;;
18520;SDS011;9390;51.244;6.982;2022-12-13T15:10:37;21.08;;;7.72;;
18520;SDS011;9390;51.244;6.982;2022-12-13T15:13:12;22.08;;;9.18;;
18520;SDS011;9390;51.244;6.982;2022-12-13T15:15:54;20.65;;;9.02;;
18520;SDS011;9390;51.244;6.982;2022-12-13T15:18:29;24.98;;;10.60;;
18520;SDS011;9390;51.244;6.982;2022-12-13T15:21:00;24.30;;;9.30;;
18520;SDS011;9390;51.244;6.982;2022-12-13T15:23:33;22.27;;;9.27;;
18520;SDS011;9390;51.244;6.982;2022-12-13T15:26:08;26.75;;;10.85;;
18520;SDS011;9390;51.244;6.982;2022-12-13T15:28:42;21.13;;;9.07;;
18520;SDS011;9390;51.244;6.982;2022-12-13T15:31:14;24.23;;;9.07;;
18520;SDS011;9390;51.244;6.982;2022-12-13T15:33:46;26.75;;;11.30;;
18520;SDS011;9390;51.244;6.982;2022-12-13T15:36:18;22.02;;;10.02;;
18520;SDS011;9390;51.244;6.982;2022-12-13T15:38:57;22.73;;;10.00;;
18520;SDS011;9390;51.244;6.982;2022-12-13T15:41:32;23.30;;;9.60;;
18520;SDS011;9390;51.244;6.982;2022-12-13T15:44:06;23.55;;;8.90;;
18520;SDS011;9390;51.244;6.982;2022-12-13T15:46:38;27.13;;;10.27;;
18520;SDS011;9390;51.244;6.982;2022-12-13T15:49:15;23.05;;;9.27;;
18520;SDS011;9390;51.244;6.982;2022-12-13T15:51:52;22.63;;;9.23;;
18520;SDS011;9390;51.244;6.982;2022-12-13T15:54:25;22.88;;;8.68;;
18520;SDS011;9390;51.244;6.982;2022-12-13T15:56:59;24.35;;;9.52;;